Time,TemperatureF,DewpointF,PressureIn,WindDirection,WindDirectionDegrees,WindSpeedMPH,WindSpeedGustMPH,Humidity,HourlyPrecipIn,Conditions,Clouds,dailyrainin,SoftwareType,DateUTC
2013-02-11 00:01:00,37.1,29.9,30.27,SE,139,3.0,3.0,75,0.00,,,0.00,Wunderground v.1.15,2013-02-11 05:01:00,
2013-02-11 00:03:00,37.2,30.0,30.27,SSE,149,3.0,3.0,75,0.00,,,0.00,Wunderground v.1.15,2013-02-11 05:03:00,
2013-02-11 00:07:00,37.3,30.4,30.26,ESE,111,2.0,5.0,76,0.00,,,0.00,Wunderground v.1.15,2013-02-11 05:07:00,
2013-02-11 00:12:00,37.5,30.6,30.25,SSE,147,2.0,3.0,76,0.00,,,0.00,Wunderground v.1.15,2013-02-11 05:12:00,
2013-02-11 00:16:00,37.6,30.7,30.25,ESE,107,1.0,4.0,76,0.00,,,0.00,Wunderground v.1.15,2013-02-11 05:16:00,
2013-02-11 00:21:00,37.9,31.0,30.25,ESE,115,3.0,5.0,76,0.00,,,0.00,Wunderground v.1.15,2013-02-11 05:21:00,
2013-02-11 00:27:00,38.1,31.2,30.25,ESE,120,0.0,4.0,76,0.00,,,0.00,Wunderground v.1.15,2013-02-11 05:27:00,
2013-02-11 00:32:00,38.2,31.3,30.24,SSW,212,3.0,4.0,76,0.00,,,0.00,Wunderground v.1.15,2013-02-11 05:32:00,
2013-02-11 00:37:00,38.4,31.8,30.24,SE,145,4.0,5.0,77,0.00,,,0.00,Wunderground v.1.15,2013-02-11 05:37:00,
2013-02-11 00:43:00,38.5,31.9,30.24,South,187,9.0,9.0,77,0.00,,,0.00,Wunderground v.1.15,2013-02-11 05:43:00,
2013-02-11 00:48:00,38.6,32.0,30.24,East,97,2.0,5.0,77,0.00,,,0.00,Wunderground v.1.15,2013-02-11 05:48:00,
2013-02-11 00:53:00,38.7,32.1,30.23,ESE,106,1.0,7.0,77,0.00,,,0.00,Wunderground v.1.15,2013-02-11 05:53:00,
2013-02-11 00:59:00,38.9,32.3,30.23,East,92,1.0,3.0,77,0.00,,,0.00,Wunderground v.1.15,2013-02-11 05:59:00,
2013-02-11 01:05:00,39.0,32.4,30.23,SE,130,2.0,5.0,77,0.00,,,0.00,Wunderground v.1.15,2013-02-11 06:05:00,
2013-02-11 01:10:00,39.2,32.6,30.24,South,169,1.0,6.0,77,0.00,,,0.00,Wunderground v.1.15,2013-02-11 06:10:00,
2013-02-11 01:16:00,39.3,32.7,30.23,North,6,0.0,5.0,77,0.00,,,0.00,Wunderground v.1.15,2013-02-11 06:16:00,
2013-02-11 01:21:00,39.4,32.8,30.24,SSE,151,9.0,9.0,77,0.00,,,0.00,Wunderground v.1.15,2013-02-11 06:21:00,
2013-02-11 01:29:00,39.6,32.7,30.23,South,172,1.0,6.0,76,0.00,,,0.00,Wunderground v.1.15,2013-02-11 06:29:00,
2013-02-11 01:34:00,39.8,32.8,30.23,East,90,3.0,4.0,76,0.00,,,0.00,Wunderground v.1.15,2013-02-11 06:34:00,
2013-02-11 01:39:00,39.9,33.3,30.22,SSE,167,5.0,8.0,77,0.00,,,0.00,Wunderground v.1.15,2013-02-11 06:39:00,
2013-02-11 01:45:00,39.9,33.6,30.22,South,171,2.0,5.0,78,0.00,,,0.00,Wunderground v.1.15,2013-02-11 06:45:00,
2013-02-11 01:50:00,39.9,33.6,30.22,SE,127,2.0,5.0,78,0.00,,,0.00,Wunderground v.1.15,2013-02-11 06:50:00,
2013-02-11 01:56:00,39.8,34.1,30.21,SE,139,3.0,4.0,80,0.00,,,0.00,Wunderground v.1.15,2013-02-11 06:56:00,
2013-02-11 02:01:00,39.7,34.3,30.21,SSE,149,2.0,2.0,81,0.00,,,0.00,Wunderground v.1.15,2013-02-11 07:01:00,
2013-02-11 02:07:00,39.6,34.6,30.21,SSE,149,2.0,6.0,82,0.00,,,0.00,Wunderground v.1.15,2013-02-11 07:07:00,
2013-02-11 02:12:00,39.7,35.0,30.21,SSE,158,2.0,3.0,83,0.00,,,0.00,Wunderground v.1.15,2013-02-11 07:12:00,
2013-02-11 02:18:00,39.7,35.0,30.20,SSE,158,2.0,5.0,83,0.00,,,0.00,Wunderground v.1.15,2013-02-11 07:18:00,
2013-02-11 02:23:00,39.7,35.3,30.20,ESE,120,4.0,4.0,84,0.00,,,0.00,Wunderground v.1.15,2013-02-11 07:23:00,
2013-02-11 02:29:00,39.6,35.2,30.20,SE,131,1.0,4.0,84,0.00,,,0.01,Wunderground v.1.15,2013-02-11 07:29:00,
2013-02-11 02:34:00,39.5,35.4,30.20,ESE,120,1.0,1.0,85,0.00,,,0.01,Wunderground v.1.15,2013-02-11 07:34:00,
2013-02-11 02:40:00,39.3,35.5,30.19,ESE,122,0.0,2.0,86,0.00,,,0.01,Wunderground v.1.15,2013-02-11 07:40:00,
2013-02-11 02:45:00,39.2,35.7,30.18,SE,124,0.0,1.0,87,0.04,,,0.02,Wunderground v.1.15,2013-02-11 07:45:00,
2013-02-11 02:51:00,39.0,35.7,30.18,East,95,1.0,1.0,88,0.04,,,0.02,Wunderground v.1.15,2013-02-11 07:51:00,
2013-02-11 02:56:00,38.9,35.6,30.17,ESE,106,1.0,1.0,88,0.04,,,0.02,Wunderground v.1.15,2013-02-11 07:56:00,
2013-02-11 03:01:00,38.8,35.8,30.17,ESE,105,0.0,0.0,89,0.00,,,0.02,Wunderground v.1.15,2013-02-11 08:01:00,
2013-02-11 03:06:00,38.7,35.7,30.17,ESE,108,0.0,0.0,89,0.00,,,0.02,Wunderground v.1.15,2013-02-11 08:06:00,
2013-02-11 03:11:00,38.7,36.0,30.16,SE,143,0.0,0.0,90,0.00,,,0.02,Wunderground v.1.15,2013-02-11 08:11:00,
2013-02-11 03:17:00,38.6,35.9,30.17,NNE,18,0.0,0.0,90,0.00,,,0.02,Wunderground v.1.15,2013-02-11 08:17:00,
2013-02-11 03:22:00,38.7,36.0,30.16,ESE,119,0.0,0.0,90,0.00,,,0.03,Wunderground v.1.15,2013-02-11 08:22:00,
2013-02-11 03:28:00,38.6,35.9,30.15,NE,51,0.0,0.0,90,0.00,,,0.03,Wunderground v.1.15,2013-02-11 08:28:00,
2013-02-11 03:34:00,38.5,36.1,30.15,NE,43,1.0,1.0,91,0.05,,,0.04,Wunderground v.1.15,2013-02-11 08:34:00,
2013-02-11 03:39:00,38.5,36.1,30.15,ENE,77,0.0,1.0,91,0.05,,,0.04,Wunderground v.1.15,2013-02-11 08:39:00,
2013-02-11 03:45:00,38.4,36.0,30.14,ESE,104,0.0,2.0,91,0.06,,,0.05,Wunderground v.1.15,2013-02-11 08:45:00,
2013-02-11 03:50:00,38.3,35.9,30.14,ENE,71,2.0,2.0,91,0.06,,,0.05,Wunderground v.1.15,2013-02-11 08:50:00,
2013-02-11 03:56:00,38.1,35.7,30.14,East,84,0.0,2.0,91,0.06,,,0.06,Wunderground v.1.15,2013-02-11 08:56:00,
2013-02-11 04:02:00,38.0,35.9,30.14,East,84,0.0,0.0,92,0.12,,,0.07,Wunderground v.1.15,2013-02-11 09:02:00,
2013-02-11 04:07:00,38.0,35.9,30.13,East,84,0.0,1.0,92,0.13,,,0.08,Wunderground v.1.15,2013-02-11 09:07:00,
2013-02-11 04:13:00,37.9,35.8,30.12,ESE,103,0.0,1.0,92,0.09,,,0.09,Wunderground v.1.15,2013-02-11 09:13:00,
2013-02-11 04:18:00,37.9,35.8,30.11,ESE,107,0.0,1.0,92,0.16,,,0.11,Wunderground v.1.15,2013-02-11 09:18:00,
2013-02-11 04:23:00,37.9,36.1,30.12,WSW,257,0.0,1.0,93,0.10,,,0.11,Wunderground v.1.15,2013-02-11 09:23:00,
2013-02-11 04:29:00,37.9,36.1,30.11,WSW,257,0.0,1.0,93,0.15,,,0.13,Wunderground v.1.15,2013-02-11 09:29:00,
2013-02-11 04:35:00,37.9,36.1,30.10,SSE,167,1.0,1.0,93,0.09,,,0.13,Wunderground v.1.15,2013-02-11 09:35:00,
2013-02-11 04:40:00,37.9,36.1,30.10,SSE,152,1.0,2.0,93,0.09,,,0.14,Wunderground v.1.15,2013-02-11 09:40:00,
2013-02-11 04:46:00,37.9,36.3,30.10,ESE,115,0.0,2.0,94,0.05,,,0.14,Wunderground v.1.15,2013-02-11 09:46:00,
2013-02-11 04:51:00,38.0,36.4,30.09,SE,128,0.0,2.0,94,0.04,,,0.14,Wunderground v.1.15,2013-02-11 09:51:00,
2013-02-11 04:57:00,38.1,36.5,30.09,ESE,108,1.0,1.0,94,0.00,,,0.14,Wunderground v.1.15,2013-02-11 09:57:00,
2013-02-11 05:02:00,38.2,36.6,30.09,SE,126,1.0,1.0,94,0.00,,,0.15,Wunderground v.1.15,2013-02-11 10:02:00,
2013-02-11 05:08:00,38.3,36.7,30.08,ESE,110,0.0,2.0,94,0.00,,,0.15,Wunderground v.1.15,2013-02-11 10:08:00,
2013-02-11 05:14:00,38.5,36.9,30.08,ESE,120,0.0,1.0,94,0.00,,,0.15,Wunderground v.1.15,2013-02-11 10:14:00,
2013-02-11 05:19:00,38.8,37.5,30.08,SSW,210,2.0,3.0,95,0.00,,,0.15,Wunderground v.1.15,2013-02-11 10:19:00,
2013-02-11 05:25:00,39.1,37.8,30.07,SE,131,0.0,3.0,95,0.00,,,0.15,Wunderground v.1.15,2013-02-11 10:25:00,
2013-02-11 05:30:00,39.2,37.9,30.07,ESE,104,1.0,3.0,95,0.00,,,0.15,Wunderground v.1.15,2013-02-11 10:30:00,
2013-02-11 05:36:00,39.2,37.9,30.06,SE,136,1.0,1.0,95,0.00,,,0.15,Wunderground v.1.15,2013-02-11 10:36:00,
2013-02-11 05:41:00,39.3,38.0,30.07,SE,141,0.0,1.0,95,0.21,,,0.16,Wunderground v.1.15,2013-02-11 10:41:00,
2013-02-11 05:47:00,39.5,38.2,30.07,SE,143,1.0,1.0,95,0.19,,,0.18,Wunderground v.1.15,2013-02-11 10:47:00,
2013-02-11 05:52:00,39.6,38.3,30.06,SE,125,1.0,1.0,95,0.08,,,0.18,Wunderground v.1.15,2013-02-11 10:52:00,
2013-02-11 05:58:00,39.7,38.4,30.05,ESE,115,1.0,2.0,95,0.08,,,0.19,Wunderground v.1.15,2013-02-11 10:58:00,
2013-02-11 06:03:00,39.9,38.6,30.05,SE,139,1.0,2.0,95,0.05,,,0.19,Wunderground v.1.15,2013-02-11 11:03:00,
2013-02-11 06:09:00,40.3,39.3,30.05,South,191,3.0,3.0,96,0.00,,,0.19,Wunderground v.1.15,2013-02-11 11:09:00,
2013-02-11 06:15:00,40.3,39.0,30.06,SSW,207,4.0,6.0,95,0.00,,,0.19,Wunderground v.1.15,2013-02-11 11:15:00,
2013-02-11 06:20:00,40.2,38.9,30.06,SSW,205,3.0,5.0,95,0.00,,,0.19,Wunderground v.1.15,2013-02-11 11:20:00,
2013-02-11 06:26:00,39.9,38.6,30.06,SW,215,3.0,5.0,95,0.13,,,0.21,Wunderground v.1.15,2013-02-11 11:26:00,
2013-02-11 06:31:00,39.7,38.4,30.06,West,264,2.0,3.0,95,0.18,,,0.22,Wunderground v.1.15,2013-02-11 11:31:00,
2013-02-11 06:37:00,39.3,38.0,30.06,West,269,0.0,3.0,95,0.16,,,0.24,Wunderground v.1.15,2013-02-11 11:37:00,
2013-02-11 06:42:00,39.2,37.9,30.05,West,267,0.0,1.0,95,0.16,,,0.26,Wunderground v.1.15,2013-02-11 11:42:00,
2013-02-11 06:48:00,39.3,38.3,30.05,SE,132,0.0,1.0,96,0.37,,,0.27,Wunderground v.1.15,2013-02-11 11:48:00,
2013-02-11 06:54:00,39.3,38.3,30.05,SE,132,0.0,0.0,96,0.13,,,0.29,Wunderground v.1.15,2013-02-11 11:54:00,
2013-02-11 06:59:00,39.3,38.3,30.05,SSW,205,1.0,1.0,96,0.16,,,0.31,Wunderground v.1.15,2013-02-11 11:59:00,
2013-02-11 07:05:00,39.4,38.4,30.05,SSW,205,0.0,0.0,96,0.26,,,0.33,Wunderground v.1.15,2013-02-11 12:05:00,
2013-02-11 07:10:00,39.6,38.6,30.04,ESE,110,2.0,2.0,96,0.25,,,0.35,Wunderground v.1.15,2013-02-11 12:10:00,
2013-02-11 07:15:00,40.2,39.4,30.03,South,176,2.0,2.0,97,0.12,,,0.36,Wunderground v.1.15,2013-02-11 12:15:00,
2013-02-11 07:20:00,41.0,40.2,30.04,South,173,4.0,4.0,97,0.11,,,0.37,Wunderground v.1.15,2013-02-11 12:20:00,
2013-02-11 07:26:00,41.9,41.4,30.03,SE,129,2.0,7.0,98,0.09,,,0.37,Wunderground v.1.15,2013-02-11 12:26:00,
2013-02-11 07:31:00,42.6,42.1,30.03,South,179,9.0,9.0,98,0.07,,,0.38,Wunderground v.1.15,2013-02-11 12:31:00,
2013-02-11 07:37:00,42.9,42.4,30.03,SSW,207,8.0,11.0,98,0.07,,,0.38,Wunderground v.1.15,2013-02-11 12:37:00,
2013-02-11 07:42:00,42.5,41.7,30.03,SSW,193,6.0,8.0,97,0.04,,,0.38,Wunderground v.1.15,2013-02-11 12:42:00,
2013-02-11 07:47:00,42.0,40.9,30.03,SSW,202,7.0,9.0,96,0.00,,,0.38,Wunderground v.1.15,2013-02-11 12:47:00,
2013-02-11 07:53:00,41.9,40.8,30.03,SSW,211,7.0,9.0,96,0.00,,,0.38,Wunderground v.1.15,2013-02-11 12:53:00,
2013-02-11 07:59:00,41.4,40.3,30.03,WSW,243,8.0,9.0,96,0.00,,,0.38,Wunderground v.1.15,2013-02-11 12:59:00,
2013-02-11 08:05:00,41.2,40.4,30.02,West,273,5.0,9.0,97,0.00,,,0.38,Wunderground v.1.15,2013-02-11 13:05:00,
2013-02-11 08:10:00,40.5,39.4,30.03,WSW,248,8.0,8.0,96,0.00,,,0.38,Wunderground v.1.15,2013-02-11 13:10:00,
2013-02-11 08:16:00,40.0,39.0,30.03,WSW,249,6.0,10.0,96,0.00,,,0.38,Wunderground v.1.15,2013-02-11 13:16:00,
2013-02-11 08:22:00,40.0,39.2,30.02,SW,233,6.0,8.0,97,0.00,,,0.38,Wunderground v.1.15,2013-02-11 13:22:00,
2013-02-11 08:28:00,40.0,39.2,30.01,SW,231,2.0,8.0,97,0.00,,,0.38,Wunderground v.1.15,2013-02-11 13:28:00,
2013-02-11 08:33:00,39.9,39.1,30.00,WSW,240,1.0,4.0,97,0.00,,,0.38,Wunderground v.1.15,2013-02-11 13:33:00,
2013-02-11 08:39:00,39.7,38.9,30.00,SSW,194,2.0,4.0,97,0.00,,,0.38,Wunderground v.1.15,2013-02-11 13:39:00,
2013-02-11 08:44:00,39.4,38.6,30.00,SSW,205,1.0,2.0,97,0.00,,,0.38,Wunderground v.1.15,2013-02-11 13:44:00,
2013-02-11 08:50:00,39.2,38.4,30.00,SW,217,1.0,2.0,97,0.00,,,0.38,Wunderground v.1.15,2013-02-11 13:50:00,
2013-02-11 08:55:00,39.1,38.3,30.00,SSW,210,1.0,2.0,97,0.00,,,0.38,Wunderground v.1.15,2013-02-11 13:55:00,
2013-02-11 09:01:00,39.2,38.4,30.00,WSW,240,1.0,1.0,97,0.00,,,0.38,Wunderground v.1.15,2013-02-11 14:01:00,
2013-02-11 09:06:00,39.1,38.3,30.00,West,262,1.0,2.0,97,0.00,,,0.38,Wunderground v.1.15,2013-02-11 14:06:00,
2013-02-11 09:12:00,39.1,38.3,30.00,WSW,255,0.0,1.0,97,0.00,,,0.38,Wunderground v.1.15,2013-02-11 14:12:00,
2013-02-11 09:17:00,39.0,38.2,30.00,WNW,283,1.0,2.0,97,0.00,,,0.38,Wunderground v.1.15,2013-02-11 14:17:00,
2013-02-11 09:23:00,39.1,38.3,30.00,West,274,2.0,2.0,97,0.00,,,0.38,Wunderground v.1.15,2013-02-11 14:23:00,
2013-02-11 09:29:00,39.1,38.3,30.00,West,274,0.0,2.0,97,0.00,,,0.38,Wunderground v.1.15,2013-02-11 14:29:00,
2013-02-11 09:34:00,39.1,38.3,30.00,West,274,0.0,0.0,97,0.00,,,0.38,Wunderground v.1.15,2013-02-11 14:34:00,
2013-02-11 09:40:00,39.2,38.4,30.00,West,274,0.0,0.0,97,0.00,,,0.38,Wunderground v.1.15,2013-02-11 14:40:00,
2013-02-11 09:45:00,39.2,38.4,30.00,West,274,0.0,0.0,97,0.00,,,0.38,Wunderground v.1.15,2013-02-11 14:45:00,
2013-02-11 09:51:00,39.3,38.5,29.99,West,274,0.0,0.0,97,0.00,,,0.38,Wunderground v.1.15,2013-02-11 14:51:00,
2013-02-11 09:56:00,39.5,39.0,29.99,West,274,0.0,0.0,98,0.00,,,0.38,Wunderground v.1.15,2013-02-11 14:56:00,
2013-02-11 10:02:00,39.7,39.2,29.99,West,274,0.0,0.0,98,0.00,,,0.38,Wunderground v.1.15,2013-02-11 15:02:00,
2013-02-11 10:08:00,39.8,39.3,29.99,West,274,0.0,0.0,98,0.00,,,0.38,Wunderground v.1.15,2013-02-11 15:08:00,
2013-02-11 10:13:00,39.8,39.3,29.98,West,274,0.0,0.0,98,0.00,,,0.38,Wunderground v.1.15,2013-02-11 15:13:00,
2013-02-11 10:19:00,39.8,39.3,29.98,West,274,0.0,0.0,98,0.00,,,0.38,Wunderground v.1.15,2013-02-11 15:19:00,
2013-02-11 10:24:00,39.9,39.4,29.98,West,274,0.0,0.0,98,0.00,,,0.38,Wunderground v.1.15,2013-02-11 15:24:00,
2013-02-11 10:30:00,39.9,39.1,29.97,West,274,0.0,0.0,97,0.00,,,0.38,Wunderground v.1.15,2013-02-11 15:30:00,
2013-02-11 10:35:00,40.0,39.5,29.97,West,274,0.0,0.0,98,0.00,,,0.38,Wunderground v.1.15,2013-02-11 15:35:00,
2013-02-11 10:41:00,40.2,39.7,29.96,West,274,0.0,0.0,98,0.00,,,0.38,Wunderground v.1.15,2013-02-11 15:41:00,
2013-02-11 10:46:00,40.5,40.0,29.96,SSW,204,0.0,0.0,98,0.00,,,0.38,Wunderground v.1.15,2013-02-11 15:46:00,
2013-02-11 10:52:00,40.6,40.1,29.96,South,171,1.0,1.0,98,0.00,,,0.38,Wunderground v.1.15,2013-02-11 15:52:00,
2013-02-11 10:58:00,40.7,40.2,29.96,SSW,193,2.0,2.0,98,0.00,,,0.38,Wunderground v.1.15,2013-02-11 15:58:00,
2013-02-11 11:03:00,40.8,40.3,29.96,South,181,2.0,2.0,98,0.00,,,0.38,Wunderground v.1.15,2013-02-11 16:03:00,
2013-02-11 11:09:00,41.1,40.6,29.95,SSW,193,1.0,3.0,98,0.00,,,0.39,Wunderground v.1.15,2013-02-11 16:09:00,
2013-02-11 11:15:00,41.2,40.7,29.95,South,188,3.0,3.0,98,0.00,,,0.39,Wunderground v.1.15,2013-02-11 16:15:00,
2013-02-11 11:20:00,41.5,41.0,29.94,SSE,163,3.0,4.0,98,0.00,,,0.39,Wunderground v.1.15,2013-02-11 16:20:00,
2013-02-11 11:26:00,41.9,41.4,29.92,SSW,203,1.0,3.0,98,0.00,,,0.39,Wunderground v.1.15,2013-02-11 16:26:00,
2013-02-11 11:31:00,42.4,41.9,29.92,SSE,160,2.0,3.0,98,0.00,,,0.39,Wunderground v.1.15,2013-02-11 16:31:00,
2013-02-11 11:37:00,42.9,42.4,29.92,South,182,3.0,3.0,98,0.00,,,0.39,Wunderground v.1.15,2013-02-11 16:37:00,
2013-02-11 11:43:00,43.4,43.1,29.91,South,176,2.0,5.0,99,0.00,,,0.39,Wunderground v.1.15,2013-02-11 16:43:00,
2013-02-11 11:48:00,43.9,43.6,29.91,South,179,6.0,6.0,99,0.00,,,0.39,Wunderground v.1.15,2013-02-11 16:48:00,
2013-02-11 11:54:00,44.3,44.0,29.91,SE,143,3.0,7.0,99,0.00,,,0.39,Wunderground v.1.15,2013-02-11 16:54:00,
2013-02-11 11:59:00,44.4,44.1,29.90,South,172,2.0,5.0,99,0.00,,,0.39,Wunderground v.1.15,2013-02-11 16:59:00,
2013-02-11 12:05:00,44.5,44.0,29.90,South,179,5.0,5.0,98,0.00,,,0.39,Wunderground v.1.15,2013-02-11 17:05:00,
2013-02-11 12:11:00,43.9,43.4,29.89,South,191,5.0,5.0,98,0.00,,,0.39,Wunderground v.1.15,2013-02-11 17:11:00,
2013-02-11 12:16:00,43.5,43.0,29.90,SSW,200,6.0,6.0,98,0.00,,,0.39,Wunderground v.1.15,2013-02-11 17:16:00,
2013-02-11 12:22:00,43.1,42.3,29.89,South,187,5.0,5.0,97,0.00,,,0.39,Wunderground v.1.15,2013-02-11 17:22:00,
2013-02-11 12:28:00,43.6,43.1,29.88,South,188,5.0,6.0,98,0.00,,,0.39,Wunderground v.1.15,2013-02-11 17:28:00,
2013-02-11 12:33:00,44.2,43.7,29.88,South,190,5.0,5.0,98,0.00,,,0.39,Wunderground v.1.15,2013-02-11 17:33:00,
2013-02-11 12:39:00,44.7,44.4,29.87,South,174,7.0,7.0,99,0.00,,,0.39,Wunderground v.1.15,2013-02-11 17:39:00,
2013-02-11 12:45:00,45.3,45.0,29.86,SSE,167,4.0,4.0,99,0.00,,,0.39,Wunderground v.1.15,2013-02-11 17:45:00,
2013-02-11 12:50:00,45.7,45.4,29.86,SSE,155,3.0,6.0,99,0.00,,,0.39,Wunderground v.1.15,2013-02-11 17:50:00,
2013-02-11 12:56:00,46.1,45.8,29.86,SSE,158,5.0,5.0,99,0.00,,,0.39,Wunderground v.1.15,2013-02-11 17:56:00,
2013-02-11 13:01:00,46.4,46.1,29.85,SSW,194,5.0,5.0,99,0.00,,,0.39,Wunderground v.1.15,2013-02-11 18:01:00,
2013-02-11 13:07:00,46.6,46.3,29.84,SSE,163,3.0,8.0,99,0.00,,,0.39,Wunderground v.1.15,2013-02-11 18:07:00,
2013-02-11 13:12:00,46.8,46.5,29.83,South,179,6.0,6.0,99,0.00,,,0.39,Wunderground v.1.15,2013-02-11 18:12:00,
2013-02-11 13:18:00,47.1,46.8,29.83,SE,144,6.0,8.0,99,0.00,,,0.39,Wunderground v.1.15,2013-02-11 18:18:00,
2013-02-11 13:23:00,47.2,46.9,29.83,SE,131,4.0,4.0,99,0.00,,,0.39,Wunderground v.1.15,2013-02-11 18:23:00,
2013-02-11 13:29:00,47.5,47.2,29.83,SSE,148,3.0,6.0,99,0.00,,,0.39,Wunderground v.1.15,2013-02-11 18:29:00,
2013-02-11 13:35:00,47.5,47.2,29.83,South,176,4.0,5.0,99,0.00,,,0.39,Wunderground v.1.15,2013-02-11 18:35:00,
2013-02-11 13:40:00,46.7,46.4,29.83,SSW,193,5.0,7.0,99,0.00,,,0.39,Wunderground v.1.15,2013-02-11 18:40:00,
2013-02-11 13:45:00,46.3,45.8,29.83,SSW,194,8.0,8.0,98,0.00,,,0.39,Wunderground v.1.15,2013-02-11 18:45:00,
2013-02-11 13:51:00,45.6,44.8,29.82,South,179,6.0,9.0,97,0.00,,,0.39,Wunderground v.1.15,2013-02-11 18:51:00,
2013-02-11 13:57:00,46.2,45.9,29.82,SSW,200,5.0,7.0,99,0.00,,,0.39,Wunderground v.1.15,2013-02-11 18:57:00,
2013-02-11 14:02:00,45.0,44.5,29.82,SSW,201,5.0,6.0,98,0.00,,,0.39,Wunderground v.1.15,2013-02-11 19:02:00,
2013-02-11 14:08:00,45.5,45.0,29.81,South,187,4.0,7.0,98,0.00,,,0.39,Wunderground v.1.15,2013-02-11 19:08:00,
2013-02-11 14:14:00,46.6,46.3,29.82,South,183,4.0,6.0,99,0.00,,,0.39,Wunderground v.1.15,2013-02-11 19:14:00,
2013-02-11 14:19:00,45.5,45.2,29.81,South,188,5.0,6.0,99,0.00,,,0.39,Wunderground v.1.15,2013-02-11 19:19:00,
2013-02-11 14:25:00,44.7,44.2,29.81,SSW,204,5.0,5.0,98,0.00,,,0.39,Wunderground v.1.15,2013-02-11 19:25:00,
2013-02-11 14:30:00,44.4,43.9,29.80,South,183,4.0,5.0,98,0.00,,,0.39,Wunderground v.1.15,2013-02-11 19:30:00,
2013-02-11 14:36:00,44.9,44.6,29.80,SSW,200,4.0,4.0,99,0.00,,,0.39,Wunderground v.1.15,2013-02-11 19:36:00,
2013-02-11 14:41:00,44.5,44.2,29.79,SSW,210,3.0,4.0,99,0.00,,,0.39,Wunderground v.1.15,2013-02-11 19:41:00,
2013-02-11 14:47:00,44.4,43.9,29.78,South,174,3.0,4.0,98,0.00,,,0.39,Wunderground v.1.15,2013-02-11 19:47:00,
2013-02-11 14:53:00,46.4,46.1,29.78,South,186,6.0,6.0,99,0.00,,,0.39,Wunderground v.1.15,2013-02-11 19:53:00,
2013-02-11 14:58:00,47.7,47.4,29.77,SSE,167,9.0,9.0,99,0.00,,,0.39,Wunderground v.1.15,2013-02-11 19:58:00,
2013-02-11 15:04:00,48.7,48.4,29.77,SSE,149,5.0,9.0,99,0.00,,,0.39,Wunderground v.1.15,2013-02-11 20:04:00,
2013-02-11 15:09:00,49.2,49.2,29.77,South,174,5.0,9.0,100,0.00,,,0.39,Wunderground v.1.15,2013-02-11 20:09:00,
2013-02-11 15:15:00,49.7,49.7,29.77,South,169,9.0,9.0,100,0.00,,,0.39,Wunderground v.1.15,2013-02-11 20:15:00,
2013-02-11 15:21:00,49.3,49.3,29.77,South,188,8.0,11.0,100,0.00,,,0.39,Wunderground v.1.15,2013-02-11 20:21:00,
2013-02-11 15:26:00,47.7,47.4,29.77,South,179,7.0,9.0,99,0.00,,,0.39,Wunderground v.1.15,2013-02-11 20:26:00,
2013-02-11 15:32:00,47.4,47.1,29.77,South,177,7.0,9.0,99,0.00,,,0.39,Wunderground v.1.15,2013-02-11 20:32:00,
2013-02-11 15:37:00,46.9,46.6,29.77,South,170,10.0,10.0,99,0.00,,,0.39,Wunderground v.1.15,2013-02-11 20:37:00,
2013-02-11 15:43:00,47.4,47.1,29.77,South,174,9.0,9.0,99,0.00,,,0.39,Wunderground v.1.15,2013-02-11 20:43:00,
2013-02-11 15:48:00,48.3,48.0,29.76,SSE,150,11.0,12.0,99,0.00,,,0.39,Wunderground v.1.15,2013-02-11 20:48:00,
2013-02-11 15:54:00,49.5,49.2,29.76,SSW,194,11.0,11.0,99,0.00,,,0.39,Wunderground v.1.15,2013-02-11 20:54:00,
2013-02-11 15:59:00,49.6,49.6,29.76,SSE,163,8.0,13.0,100,0.00,,,0.39,Wunderground v.1.15,2013-02-11 20:59:00,
2013-02-11 16:05:00,50.0,50.0,29.75,South,180,10.0,14.0,100,0.00,,,0.39,Wunderground v.1.15,2013-02-11 21:05:00,
2013-02-11 16:11:00,50.0,50.0,29.75,SSE,168,10.0,11.0,100,0.00,,,0.39,Wunderground v.1.15,2013-02-11 21:11:00,
2013-02-11 16:16:00,49.9,49.9,29.75,South,172,9.0,14.0,100,0.00,,,0.39,Wunderground v.1.15,2013-02-11 21:16:00,
2013-02-11 16:22:00,49.3,49.0,29.76,South,170,11.0,12.0,99,0.00,,,0.39,Wunderground v.1.15,2013-02-11 21:22:00,
2013-02-11 16:27:00,49.0,48.7,29.75,South,183,9.0,12.0,99,0.00,,,0.39,Wunderground v.1.15,2013-02-11 21:27:00,
2013-02-11 16:33:00,49.1,48.8,29.75,South,183,9.0,10.0,99,0.00,,,0.39,Wunderground v.1.15,2013-02-11 21:33:00,
2013-02-11 16:39:00,48.5,48.2,29.75,South,181,12.0,12.0,99,0.00,,,0.39,Wunderground v.1.15,2013-02-11 21:39:00,
2013-02-11 16:44:00,48.7,48.4,29.74,SSE,163,9.0,9.0,99,0.00,,,0.39,Wunderground v.1.15,2013-02-11 21:44:00,
2013-02-11 16:50:00,47.8,47.5,29.74,South,188,11.0,12.0,99,0.00,,,0.39,Wunderground v.1.15,2013-02-11 21:50:00,
2013-02-11 16:56:00,47.7,47.2,29.74,South,181,10.0,12.0,98,0.00,,,0.39,Wunderground v.1.15,2013-02-11 21:56:00,
2013-02-11 17:01:00,48.0,47.7,29.74,SSW,208,10.0,10.0,99,0.00,,,0.39,Wunderground v.1.15,2013-02-11 22:01:00,
2013-02-11 17:07:00,48.1,47.8,29.74,South,172,9.0,13.0,99,0.00,,,0.39,Wunderground v.1.15,2013-02-11 22:07:00,
2013-02-11 17:13:00,47.9,47.6,29.74,South,187,12.0,12.0,99,0.00,,,0.39,Wunderground v.1.15,2013-02-11 22:13:00,
2013-02-11 17:18:00,48.4,48.1,29.73,South,175,13.0,14.0,99,0.00,,,0.39,Wunderground v.1.15,2013-02-11 22:18:00,
2013-02-11 17:24:00,48.5,48.2,29.73,SSW,200,17.0,17.0,99,0.00,,,0.39,Wunderground v.1.15,2013-02-11 22:24:00,
2013-02-11 17:30:00,48.5,48.2,29.72,SSW,193,13.0,17.0,99,0.00,,,0.39,Wunderground v.1.15,2013-02-11 22:30:00,
2013-02-11 17:36:00,48.5,48.0,29.72,South,177,13.0,16.0,98,0.00,,,0.39,Wunderground v.1.15,2013-02-11 22:36:00,
2013-02-11 17:41:00,48.5,47.7,29.72,South,190,14.0,17.0,97,0.00,,,0.39,Wunderground v.1.15,2013-02-11 22:41:00,
2013-02-11 17:47:00,48.6,47.8,29.71,SSW,197,12.0,15.0,97,0.00,,,0.39,Wunderground v.1.15,2013-02-11 22:47:00,
2013-02-11 17:53:00,48.3,47.5,29.71,South,189,13.0,13.0,97,0.00,,,0.39,Wunderground v.1.15,2013-02-11 22:53:00,
2013-02-11 17:58:00,48.4,47.6,29.71,South,184,11.0,17.0,97,0.00,,,0.39,Wunderground v.1.15,2013-02-11 22:58:00,
2013-02-11 18:13:00,48.6,48.1,29.70,South,177,14.0,14.0,98,0.00,,,0.39,Wunderground v.1.15,2013-02-11 23:13:00,
2013-02-11 18:19:00,49.2,48.7,29.70,South,186,14.0,16.0,98,0.00,,,0.39,Wunderground v.1.15,2013-02-11 23:19:00,
2013-02-11 18:25:00,49.3,48.8,29.70,South,176,14.0,14.0,98,0.00,,,0.39,Wunderground v.1.15,2013-02-11 23:25:00,
2013-02-11 18:31:00,49.5,48.7,29.69,SSW,198,13.0,16.0,97,0.00,,,0.39,Wunderground v.1.15,2013-02-11 23:31:00,
2013-02-11 18:37:00,49.2,48.4,29.69,South,173,12.0,14.0,97,0.00,,,0.39,Wunderground v.1.15,2013-02-11 23:37:00,
2013-02-11 18:42:00,48.8,47.7,29.69,South,177,10.0,14.0,96,0.00,,,0.39,Wunderground v.1.15,2013-02-11 23:42:00,
2013-02-11 18:47:00,48.7,47.6,29.69,South,181,9.0,13.0,96,0.00,,,0.39,Wunderground v.1.15,2013-02-11 23:47:00,
2013-02-11 18:53:00,48.8,48.0,29.69,South,183,11.0,14.0,97,0.00,,,0.39,Wunderground v.1.15,2013-02-11 23:53:00,
2013-02-11 18:58:00,48.7,47.9,29.69,SSW,193,10.0,13.0,97,0.00,,,0.39,Wunderground v.1.15,2013-02-11 23:58:00,
2013-02-11 19:04:00,49.1,48.6,29.69,South,186,12.0,16.0,98,0.00,,,0.39,Wunderground v.1.15,2013-02-12 00:04:00,
2013-02-11 19:09:00,48.9,48.1,29.69,South,174,12.0,16.0,97,0.00,,,0.39,Wunderground v.1.15,2013-02-12 00:09:00,
2013-02-11 19:14:00,48.7,47.6,29.69,SSW,200,13.0,16.0,96,0.00,,,0.39,Wunderground v.1.15,2013-02-12 00:14:00,
2013-02-11 19:20:00,48.6,47.5,29.69,SSW,195,14.0,16.0,96,0.00,,,0.39,Wunderground v.1.15,2013-02-12 00:20:00,
2013-02-11 19:25:00,48.9,48.1,29.69,South,188,14.0,15.0,97,0.00,,,0.39,Wunderground v.1.15,2013-02-12 00:25:00,
2013-02-11 19:31:00,49.0,47.9,29.69,South,190,12.0,15.0,96,0.00,,,0.39,Wunderground v.1.15,2013-02-12 00:31:00,
2013-02-11 19:36:00,48.9,47.5,29.69,SSE,159,13.0,15.0,95,0.00,,,0.39,Wunderground v.1.15,2013-02-12 00:36:00,
2013-02-11 19:42:00,48.9,47.5,29.69,South,187,13.0,17.0,95,0.00,,,0.39,Wunderground v.1.15,2013-02-12 00:42:00,
2013-02-11 19:47:00,48.8,47.4,29.69,South,183,12.0,15.0,95,0.00,,,0.39,Wunderground v.1.15,2013-02-12 00:47:00,
2013-02-11 19:53:00,48.7,47.3,29.69,South,181,11.0,15.0,95,0.00,,,0.39,Wunderground v.1.15,2013-02-12 00:53:00,
2013-02-11 19:59:00,48.2,46.6,29.69,South,173,11.0,13.0,94,0.00,,,0.39,Wunderground v.1.15,2013-02-12 00:59:00,
2013-02-11 20:04:00,48.0,46.4,29.69,South,188,11.0,13.0,94,0.00,,,0.39,Wunderground v.1.15,2013-02-12 01:04:00,
2013-02-11 20:10:00,48.1,46.7,29.69,SSE,158,11.0,11.0,95,0.00,,,0.39,Wunderground v.1.15,2013-02-12 01:10:00,
2013-02-11 20:15:00,47.8,46.2,29.69,South,186,11.0,12.0,94,0.00,,,0.39,Wunderground v.1.15,2013-02-12 01:15:00,
2013-02-11 20:21:00,47.7,46.1,29.69,South,174,9.0,10.0,94,0.00,,,0.39,Wunderground v.1.15,2013-02-12 01:21:00,
2013-02-11 20:26:00,47.6,46.0,29.69,South,180,10.0,12.0,94,0.00,,,0.39,Wunderground v.1.15,2013-02-12 01:26:00,
2013-02-11 20:32:00,47.8,46.2,29.69,South,176,9.0,10.0,94,0.00,,,0.39,Wunderground v.1.15,2013-02-12 01:32:00,
2013-02-11 20:37:00,47.4,45.5,29.69,South,188,9.0,11.0,93,0.00,,,0.39,Wunderground v.1.15,2013-02-12 01:37:00,
2013-02-11 20:43:00,47.1,45.2,29.70,South,187,7.0,9.0,93,0.00,,,0.39,Wunderground v.1.15,2013-02-12 01:43:00,
2013-02-11 20:48:00,46.8,44.9,29.71,SSW,195,7.0,9.0,93,0.00,,,0.39,Wunderground v.1.15,2013-02-12 01:48:00,
2013-02-11 20:54:00,46.4,44.5,29.71,SSW,205,6.0,7.0,93,0.00,,,0.39,Wunderground v.1.15,2013-02-12 01:54:00,
2013-02-11 20:59:00,46.4,44.8,29.71,SSW,193,5.0,9.0,94,0.00,,,0.39,Wunderground v.1.15,2013-02-12 01:59:00,
2013-02-11 21:05:00,46.4,44.5,29.71,South,190,5.0,7.0,93,0.00,,,0.39,Wunderground v.1.15,2013-02-12 02:05:00,
2013-02-11 21:10:00,46.8,45.2,29.71,SSW,208,9.0,9.0,94,0.00,,,0.39,Wunderground v.1.15,2013-02-12 02:10:00,
2013-02-11 21:16:00,47.1,44.9,29.71,SW,217,6.0,9.0,92,0.00,,,0.39,Wunderground v.1.15,2013-02-12 02:16:00,
2013-02-11 21:22:00,46.8,44.6,29.71,SSW,211,6.0,8.0,92,0.00,,,0.39,Wunderground v.1.15,2013-02-12 02:22:00,
2013-02-11 21:27:00,46.4,44.2,29.71,SW,219,4.0,8.0,92,0.00,,,0.39,Wunderground v.1.15,2013-02-12 02:27:00,
2013-02-11 21:33:00,46.3,44.1,29.71,SW,218,5.0,5.0,92,0.00,,,0.39,Wunderground v.1.15,2013-02-12 02:33:00,
2013-02-11 21:38:00,46.3,44.1,29.72,SSW,212,6.0,6.0,92,0.00,,,0.39,Wunderground v.1.15,2013-02-12 02:38:00,
2013-02-11 21:44:00,46.6,44.4,29.72,SSW,211,6.0,6.0,92,0.00,,,0.39,Wunderground v.1.15,2013-02-12 02:44:00,
2013-02-11 21:50:00,46.4,44.2,29.72,South,181,4.0,6.0,92,0.00,,,0.39,Wunderground v.1.15,2013-02-12 02:50:00,
2013-02-11 21:56:00,46.3,44.1,29.73,South,188,3.0,5.0,92,0.00,,,0.39,Wunderground v.1.15,2013-02-12 02:56:00,
2013-02-11 22:01:00,46.1,43.9,29.73,South,181,3.0,3.0,92,0.00,,,0.39,Wunderground v.1.15,2013-02-12 03:01:00,
2013-02-11 22:07:00,46.1,43.9,29.73,South,170,3.0,4.0,92,0.00,,,0.39,Wunderground v.1.15,2013-02-12 03:07:00,
2013-02-11 22:12:00,46.1,43.9,29.73,SSE,163,4.0,4.0,92,0.00,,,0.39,Wunderground v.1.15,2013-02-12 03:12:00,
2013-02-11 22:18:00,46.2,44.3,29.73,South,170,3.0,4.0,93,0.00,,,0.39,Wunderground v.1.15,2013-02-12 03:18:00,
2013-02-11 22:23:00,46.3,44.4,29.74,SSE,167,0.0,3.0,93,0.00,,,0.39,Wunderground v.1.15,2013-02-12 03:23:00,
2013-02-11 22:29:00,46.0,43.8,29.75,NNW,347,4.0,4.0,92,0.00,,,0.39,Wunderground v.1.15,2013-02-12 03:29:00,
2013-02-11 22:34:00,45.6,43.4,29.75,North,6,0.0,1.0,92,0.00,,,0.39,Wunderground v.1.15,2013-02-12 03:34:00,
2013-02-11 22:40:00,45.8,43.9,29.75,North,8,0.0,1.0,93,0.00,,,0.39,Wunderground v.1.15,2013-02-12 03:40:00,
2013-02-11 22:45:00,46.2,44.6,29.75,East,100,0.0,1.0,94,0.00,,,0.39,Wunderground v.1.15,2013-02-12 03:45:00,
2013-02-11 22:51:00,46.8,45.2,29.75,ESE,120,1.0,1.0,94,0.00,,,0.39,Wunderground v.1.15,2013-02-12 03:51:00,
2013-02-11 22:57:00,47.4,45.8,29.75,SSE,157,2.0,3.0,94,0.00,,,0.39,Wunderground v.1.15,2013-02-12 03:57:00,
2013-02-11 23:02:00,47.8,46.2,29.75,ESE,117,1.0,1.0,94,0.00,,,0.39,Wunderground v.1.15,2013-02-12 04:02:00,
2013-02-11 23:08:00,48.6,47.0,29.75,SE,128,1.0,1.0,94,0.00,,,0.39,Wunderground v.1.15,2013-02-12 04:08:00,
2013-02-11 23:13:00,48.8,46.6,29.76,SE,132,0.0,1.0,92,0.00,,,0.39,Wunderground v.1.15,2013-02-12 04:13:00,
2013-02-11 23:19:00,49.0,47.1,29.76,SE,136,0.0,1.0,93,0.00,,,0.39,Wunderground v.1.15,2013-02-12 04:19:00,
2013-02-11 23:25:00,48.9,46.7,29.76,SSE,157,1.0,1.0,92,0.00,,,0.39,Wunderground v.1.15,2013-02-12 04:25:00,
2013-02-11 23:30:00,48.1,45.6,29.76,SSE,153,2.0,2.0,91,0.00,,,0.39,Wunderground v.1.15,2013-02-12 04:30:00,
2013-02-11 23:36:00,48.7,46.5,29.76,SSE,155,0.0,1.0,92,0.00,,,0.39,Wunderground v.1.15,2013-02-12 04:36:00,
2013-02-11 23:41:00,48.1,45.6,29.75,SSE,155,0.0,1.0,91,0.00,,,0.39,Wunderground v.1.15,2013-02-12 04:41:00,
2013-02-11 23:47:00,47.3,44.8,29.76,SSE,155,0.0,0.0,91,0.00,,,0.39,Wunderground v.1.15,2013-02-12 04:47:00,
2013-02-11 23:53:00,46.7,44.2,29.77,North,6,1.0,3.0,91,0.00,,,0.39,Wunderground v.1.15,2013-02-12 04:53:00,
2013-02-11 23:59:00,47.0,45.4,29.77,NNW,339,2.0,3.0,94,0.00,,,0.39,Wunderground v.1.15,2013-02-12 04:59:00,